Time;durP1;ratioP1;P1;durP2;ratioP2;P2;SDS_P1;SDS_P2;PMS_P1;PMS_P2;Temp;Humidity;BMP_temperature;BMP_pressure;BME280_temperature;BME280_humidity;BME280_pressure;Samples;Min_cycle;Max_cycle;Signal;HPM_P1;HPM_P2
2022/05/10 00:01:31;;;;;;;7.15;3.53;;;14.10;99.90;;;;;;4971673;28;20437;-72
2022/05/10 00:03:58;;;;;;;9.35;3.80;;;14.00;99.90;;;;;;4977735;28;20040;-72
2022/05/10 00:06:25;;;;;;;12.43;4.13;;;13.90;99.90;;;;;;4968103;28;20492;-72
2022/05/10 00:08:51;;;;;;;10.25;4.40;;;13.90;99.90;;;;;;4965518;28;20101;-72
2022/05/10 00:11:17;;;;;;;10.18;4.38;;;13.80;99.90;;;;;;4952621;28;20043;-72
2022/05/10 00:13:42;;;;;;;13.63;4.30;;;13.80;99.90;;;;;;4970227;28;20046;-72
2022/05/10 00:16:14;;;;;;;11.32;4.20;;;13.70;99.90;;;;;;4967868;28;20043;-73
2022/05/10 00:18:41;;;;;;;12.55;4.53;;;13.70;99.90;;;;;;4983547;28;20513;-73
2022/05/10 00:21:09;;;;;;;12.30;4.82;;;13.70;99.90;;;;;;4965062;28;20026;-73
2022/05/10 00:23:35;;;;;;;10.45;4.30;;;13.70;99.90;;;;;;4972754;28;20093;-73
2022/05/10 00:26:00;;;;;;;12.80;4.63;;;13.70;99.90;;;;;;4969235;28;20031;-73
2022/05/10 00:28:26;;;;;;;13.13;4.93;;;13.70;99.90;;;;;;4961961;28;20117;-73
2022/05/10 00:30:52;;;;;;;15.07;4.97;;;13.70;99.90;;;;;;4966619;28;20527;-73
2022/05/10 00:33:26;;;;;;;8.50;4.78;;;13.70;99.90;;;;;;4970213;28;20083;-73
2022/05/10 00:35:52;;;;;;;11.10;4.80;;;13.70;99.90;;;;;;4971187;28;20061;-73
2022/05/10 00:38:21;;;;;;;12.40;4.90;;;13.60;99.90;;;;;;4965962;28;20548;-73
2022/05/10 00:40:47;;;;;;;13.27;4.30;;;13.60;99.90;;;;;;4966675;28;20043;-73
2022/05/10 00:43:29;;;;;;;10.50;4.50;;;13.40;99.90;;;;;;4949804;28;20035;-73
2022/05/10 00:45:57;;;;;;;12.98;4.82;;;13.40;99.90;;;;;;4971534;28;20039;-73
2022/05/10 00:48:30;;;;;;;16.85;4.80;;;13.40;99.90;;;;;;4963952;28;20109;-73
2022/05/10 00:51:18;;;;;;;12.00;5.35;;;13.30;99.90;;;;;;4960972;28;20126;-74
2022/05/10 00:53:58;;;;;;;11.48;4.93;;;13.30;99.90;;;;;;4962608;28;20054;-73
2022/05/10 00:56:31;;;;;;;12.60;5.65;;;13.30;99.90;;;;;;4963444;28;20031;-73
2022/05/10 00:59:17;;;;;;;14.18;5.03;;;13.30;99.90;;;;;;4966946;28;20047;-73
2022/05/10 01:01:47;;;;;;;8.48;4.63;;;13.30;99.90;;;;;;4972517;28;20055;-73
2022/05/10 01:04:19;;;;;;;11.93;4.60;;;13.30;99.90;;;;;;4949338;28;20039;-73
2022/05/10 01:07:22;;;;;;;11.23;5.25;;;13.30;99.90;;;;;;4972763;28;20039;-73
2022/05/10 01:10:04;;;;;;;9.20;4.78;;;13.30;99.90;;;;;;4967963;28;20141;-73
2022/05/10 01:12:40;;;;;;;11.85;4.57;;;13.20;99.90;;;;;;4975420;28;20125;-73
2022/05/10 01:15:10;;;;;;;9.57;4.40;;;13.20;99.90;;;;;;4961844;28;20054;-73
2022/05/10 01:17:36;;;;;;;8.93;4.97;;;13.20;99.90;;;;;;4971100;28;20061;-74
2022/05/10 01:20:06;;;;;;;19.85;5.50;;;13.10;99.90;;;;;;4965136;28;20515;-73
2022/05/10 01:23:02;;;;;;;9.43;4.95;;;13.10;99.90;;;;;;4964252;28;20031;-73
2022/05/10 01:25:56;;;;;;;11.20;5.82;;;13.10;99.90;;;;;;4954915;28;20046;-73
2022/05/10 01:28:39;;;;;;;14.30;5.55;;;13.10;99.90;;;;;;4968195;28;20488;-73
2022/05/10 01:31:17;;;;;;;12.05;5.43;;;13.10;99.90;;;;;;4965493;28;20180;-73
2022/05/10 01:33:49;;;;;;;9.15;4.97;;;13.10;99.90;;;;;;4970219;28;20043;-73
2022/05/10 01:36:34;;;;;;;;;;;13.10;99.90;;;;;;4971934;28;20030;-73
2022/05/10 01:39:21;;;;;;;11.50;5.32;;;13.10;99.90;;;;;;4965263;28;19965;-73
2022/05/10 01:42:07;;;;;;;10.48;5.43;;;13.10;99.90;;;;;;4969636;28;20050;-73
2022/05/10 01:44:56;;;;;;;11.75;5.20;;;13.10;99.90;;;;;;4969340;28;20104;-73
2022/05/10 01:47:25;;;;;;;10.13;5.53;;;13.10;99.90;;;;;;4971352;28;20065;-73
2022/05/10 01:50:10;;;;;;;14.88;6.25;;;13.10;99.90;;;;;;4964834;28;20069;-73
2022/05/10 01:53:03;;;;;;;10.02;5.82;;;13.10;99.90;;;;;;4977212;28;20050;-74
2022/05/10 01:55:39;;;;;;;;;;;13.10;99.90;;;;;;4966464;28;20089;-74
2022/05/10 01:58:14;;;;;;;20.02;6.03;;;13.10;99.90;;;;;;4974633;28;19919;-73
2022/05/10 02:00:43;;;;;;;11.10;5.55;;;13.10;99.90;;;;;;4962655;28;20879;-73
2022/05/10 02:03:21;;;;;;;11.68;6.20;;;13.00;99.90;;;;;;4965490;28;20385;-74
2022/05/10 02:06:05;;;;;;;12.80;6.88;;;13.00;99.90;;;;;;4959020;28;20390;-73
2022/05/10 02:09:09;;;;;;;14.23;6.70;;;13.00;99.90;;;;;;4961696;28;20423;-73
2022/05/10 02:11:40;;;;;;;13.40;6.55;;;13.10;99.90;;;;;;4966087;28;20398;-73
2022/05/10 02:14:09;;;;;;;12.68;7.03;;;13.00;99.90;;;;;;4965495;28;20990;-73
2022/05/10 02:17:00;;;;;;;9.82;6.40;;;13.00;99.90;;;;;;4965449;28;20023;-73
2022/05/10 02:19:41;;;;;;;10.63;6.60;;;13.00;99.90;;;;;;4981707;28;20436;-74
2022/05/10 02:22:12;;;;;;;12.38;6.57;;;13.00;99.90;;;;;;4950343;28;20413;-73
2022/05/10 02:24:43;;;;;;;13.05;6.95;;;13.00;99.90;;;;;;4966492;28;20404;-72
2022/05/10 02:27:20;;;;;;;11.82;6.55;;;13.00;99.90;;;;;;4952944;28;20402;-72
2022/05/10 02:30:03;;;;;;;14.93;7.45;;;13.00;99.90;;;;;;4963408;28;20046;-72
2022/05/10 02:35:20;;;;;;;15.95;6.85;;;12.90;99.90;;;;;;4963175;28;20456;-72
2022/05/10 02:37:46;;;;;;;12.07;7.35;;;12.90;99.90;;;;;;4966476;28;20097;-72
2022/05/10 02:40:14;;;;;;;10.32;6.88;;;13.00;99.90;;;;;;4944245;28;20081;-72
2022/05/10 02:42:40;;;;;;;11.18;6.53;;;13.00;99.90;;;;;;4966184;28;20485;-72
2022/05/10 02:45:07;;;;;;;14.30;7.38;;;12.90;99.90;;;;;;4966295;28;20043;-72
2022/05/10 02:47:39;;;;;;;18.77;8.05;;;12.90;99.90;;;;;;4969808;28;20410;-72
2022/05/10 02:50:07;;;;;;;15.17;7.77;;;13.00;99.90;;;;;;4963238;28;20497;-72
2022/05/10 02:52:33;;;;;;;15.35;7.97;;;12.90;99.90;;;;;;4971012;28;20305;-72
2022/05/10 02:55:08;;;;;;;16.80;7.75;;;13.00;99.90;;;;;;4954374;28;20382;-72
2022/05/10 02:57:34;;;;;;;16.00;7.45;;;12.90;99.90;;;;;;4950778;28;20035;-72
2022/05/10 03:00:03;;;;;;;15.15;8.60;;;13.00;99.90;;;;;;4978674;28;20552;-72
2022/05/10 03:02:34;;;;;;;16.52;8.70;;;13.00;99.90;;;;;;4963201;28;20046;-72
2022/05/10 03:05:00;;;;;;;15.68;8.05;;;13.00;99.90;;;;;;4962141;28;20038;-72
2022/05/10 03:07:28;;;;;;;16.48;8.43;;;12.90;99.90;;;;;;4965824;28;20117;-72
2022/05/10 03:09:54;;;;;;;15.93;8.30;;;13.00;99.90;;;;;;4968814;28;20062;-72
2022/05/10 03:12:19;;;;;;;15.90;8.73;;;13.00;99.90;;;;;;4962963;28;20047;-71
2022/05/10 03:14:45;;;;;;;23.67;8.70;;;13.00;99.90;;;;;;4964183;28;20130;-72
2022/05/10 03:17:12;;;;;;;17.33;8.23;;;13.00;99.90;;;;;;4969753;28;20043;-72
2022/05/10 03:19:42;;;;;;;20.63;9.02;;;13.00;99.90;;;;;;4968925;28;20130;-72
2022/05/10 03:22:10;;;;;;;17.35;8.32;;;13.00;99.90;;;;;;4968710;28;20046;-72
2022/05/10 03:24:36;;;;;;;14.00;8.10;;;13.00;99.90;;;;;;4963321;28;20126;-72
2022/05/10 03:27:04;;;;;;;14.98;8.30;;;13.00;99.90;;;;;;4948884;28;20486;-72
2022/05/10 03:29:30;;;;;;;16.73;8.52;;;13.00;99.90;;;;;;4970467;28;20042;-72
2022/05/10 03:31:57;;;;;;;15.45;8.63;;;13.00;99.90;;;;;;4967630;28;20054;-72
2022/05/10 03:37:06;;;;;;;19.55;8.52;;;13.00;99.90;;;;;;4970465;28;20073;-71
2022/05/10 03:39:32;;;;;;;21.80;8.55;;;13.00;99.90;;;;;;4971345;28;20066;-72
2022/05/10 03:41:58;;;;;;;17.17;8.13;;;13.00;99.90;;;;;;4968353;28;20038;-72
2022/05/10 03:44:24;;;;;;;16.85;9.15;;;13.00;99.90;;;;;;4972462;28;20039;-72
2022/05/10 03:46:50;;;;;;;12.63;8.57;;;13.00;99.90;;;;;;4970516;28;20047;-72
2022/05/10 03:49:16;;;;;;;18.70;9.38;;;13.00;99.90;;;;;;4972473;28;20045;-72
2022/05/10 03:51:42;;;;;;;14.20;9.15;;;13.00;99.90;;;;;;4967452;28;20046;-72
2022/05/10 03:54:08;;;;;;;15.43;9.77;;;13.00;99.90;;;;;;4965451;28;20053;-72
2022/05/10 03:56:34;;;;;;;19.92;10.70;;;13.00;99.90;;;;;;4974049;28;20039;-72
2022/05/10 03:59:00;;;;;;;16.60;10.60;;;13.00;99.90;;;;;;4962798;28;20051;-72
2022/05/10 04:01:26;;;;;;;21.80;10.52;;;13.00;99.90;;;;;;4967485;28;20039;-72
2022/05/10 04:03:51;;;;;;;29.02;10.07;;;13.00;99.90;;;;;;4970912;28;20047;-72
2022/05/10 04:06:17;;;;;;;25.48;10.38;;;13.10;99.90;;;;;;4966651;28;20136;-72
2022/05/10 04:08:43;;;;;;;20.55;9.65;;;13.10;99.90;;;;;;4971971;28;20043;-72
2022/05/10 04:11:10;;;;;;;77.25;10.60;;;13.10;99.90;;;;;;4963882;28;20042;-72
2022/05/10 04:13:38;;;;;;;38.03;9.48;;;13.10;99.90;;;;;;4963517;28;20101;-72
2022/05/10 04:16:04;;;;;;;26.98;9.93;;;13.10;99.90;;;;;;4969974;28;20641;-72
2022/05/10 04:18:29;;;;;;;20.95;9.60;;;13.10;99.90;;;;;;4954741;28;20062;-72
2022/05/10 04:20:55;;;;;;;27.75;10.57;;;13.10;99.90;;;;;;4962398;28;20047;-72
2022/05/10 04:23:21;;;;;;;18.23;10.23;;;13.10;99.90;;;;;;4972126;28;20046;-72
2022/05/10 04:25:47;;;;;;;24.13;10.52;;;13.10;99.90;;;;;;4965592;28;20046;-72
2022/05/10 04:28:13;;;;;;;30.58;10.93;;;13.20;99.90;;;;;;4971379;28;20042;-72
2022/05/10 04:30:39;;;;;;;25.70;11.10;;;13.10;99.90;;;;;;4949607;28;20094;-72
2022/05/10 04:33:05;;;;;;;16.00;10.52;;;13.20;99.90;;;;;;4966765;28;20043;-72
2022/05/10 04:35:31;;;;;;;17.27;10.27;;;13.20;99.90;;;;;;4967395;28;20134;-72
2022/05/10 04:38:00;;;;;;;16.33;11.10;;;13.20;99.90;;;;;;4961834;28;20042;-72
2022/05/10 04:43:10;;;;;;;18.25;11.48;;;13.30;99.90;;;;;;4968469;28;20075;-72
2022/05/10 04:45:39;;;;;;;15.88;10.55;;;13.30;99.90;;;;;;4963947;28;20062;-72
2022/05/10 04:48:04;;;;;;;18.52;11.18;;;13.30;99.90;;;;;;4964256;28;20416;-72
2022/05/10 04:50:30;;;;;;;16.10;11.32;;;13.40;99.90;;;;;;4972086;28;20047;-72
2022/05/10 04:52:56;;;;;;;17.48;11.38;;;13.40;99.90;;;;;;4971983;28;20058;-72
2022/05/10 04:55:22;;;;;;;14.18;10.63;;;13.40;99.90;;;;;;4971086;28;20035;-72
2022/05/10 04:57:47;;;;;;;19.42;11.13;;;13.50;99.90;;;;;;4970418;28;20043;-72
2022/05/10 05:00:14;;;;;;;13.68;10.43;;;13.50;99.90;;;;;;4968995;28;20543;-72
2022/05/10 05:02:42;;;;;;;17.15;11.50;;;13.50;99.90;;;;;;4968889;28;20039;-72
2022/05/10 05:05:10;;;;;;;15.55;10.73;;;13.60;99.90;;;;;;4949437;28;20043;-72
2022/05/10 05:07:36;;;;;;;18.10;11.52;;;13.60;99.90;;;;;;4964304;28;20389;-72
2022/05/10 05:10:06;;;;;;;24.80;11.73;;;13.70;99.90;;;;;;4968529;28;20047;-72
2022/05/10 05:12:32;;;;;;;16.17;11.02;;;13.70;99.90;;;;;;4964923;28;20053;-72
2022/05/10 05:14:59;;;;;;;17.05;11.27;;;13.70;99.90;;;;;;4967599;28;20039;-72
2022/05/10 05:17:25;;;;;;;16.95;10.90;;;13.80;99.90;;;;;;4970895;28;20049;-72
2022/05/10 05:19:50;;;;;;;23.45;11.80;;;13.90;99.90;;;;;;4970883;28;20054;-72
2022/05/10 05:22:16;;;;;;;16.35;11.77;;;13.90;99.90;;;;;;4963561;28;20031;-73
2022/05/10 05:24:42;;;;;;;19.88;11.88;;;14.00;99.90;;;;;;4960816;28;20122;-73
2022/05/10 05:27:08;;;;;;;21.50;12.70;;;14.00;99.90;;;;;;4961012;28;20042;-72
2022/05/10 05:29:33;;;;;;;19.52;11.70;;;14.20;99.90;;;;;;4971150;28;20050;-72
2022/05/10 05:32:04;;;;;;;16.08;11.52;;;14.20;99.90;;;;;;4964098;28;20367;-72
2022/05/10 05:34:29;;;;;;;17.38;11.80;;;14.40;99.90;;;;;;4961249;28;20042;-72
2022/05/10 05:39:39;;;;;;;23.45;12.40;;;14.70;99.90;;;;;;4971195;28;20047;-72
2022/05/10 05:42:05;;;;;;;22.60;12.50;;;14.80;99.90;;;;;;4969435;28;20042;-72
2022/05/10 05:44:31;;;;;;;19.77;12.48;;;14.90;99.90;;;;;;4977745;28;20058;-72
2022/05/10 05:46:57;;;;;;;20.02;12.10;;;14.90;99.90;;;;;;4950708;28;20058;-72
2022/05/10 05:49:26;;;;;;;17.45;11.80;;;15.10;99.90;;;;;;4966183;28;20158;-72
2022/05/10 05:51:56;;;;;;;21.25;12.20;;;15.20;99.90;;;;;;4968314;28;20042;-72
2022/05/10 05:54:22;;;;;;;19.60;11.57;;;15.30;99.90;;;;;;4949036;28;20039;-73
2022/05/10 05:56:48;;;;;;;19.50;12.75;;;15.30;99.90;;;;;;4966389;28;20642;-73
2022/05/10 05:59:13;;;;;;;17.40;11.43;;;15.40;99.90;;;;;;4968178;28;20062;-73
2022/05/10 06:01:39;;;;;;;18.45;11.18;;;15.50;99.90;;;;;;4968472;28;20491;-73
2022/05/10 06:04:04;;;;;;;17.55;10.95;;;15.60;99.90;;;;;;4986320;28;20034;-73
2022/05/10 06:06:30;;;;;;;20.30;11.07;;;15.70;99.90;;;;;;4966988;28;20489;-73
2022/05/10 06:08:56;;;;;;;20.60;10.93;;;15.80;99.90;;;;;;4958222;28;20078;-73
2022/05/10 06:11:21;;;;;;;19.65;10.90;;;15.80;99.90;;;;;;4972315;28;20106;-73
2022/05/10 06:13:47;;;;;;;19.98;10.80;;;15.90;99.90;;;;;;4961476;28;20454;-73
2022/05/10 06:16:13;;;;;;;17.92;10.23;;;16.00;99.90;;;;;;4960441;28;20050;-73
2022/05/10 06:18:38;;;;;;;17.33;10.98;;;16.10;99.90;;;;;;4964780;28;20061;-73
2022/05/10 06:21:04;;;;;;;16.98;10.45;;;16.20;99.90;;;;;;4962186;28;20081;-73
2022/05/10 06:23:30;;;;;;;15.25;10.30;;;16.30;99.90;;;;;;4963010;28;20038;-73
2022/05/10 06:25:55;;;;;;;18.58;10.60;;;16.40;99.90;;;;;;4962452;28;20051;-73
2022/05/10 06:28:21;;;;;;;15.60;10.25;;;16.50;99.90;;;;;;4946718;28;20035;-73
2022/05/10 06:30:47;;;;;;;12.07;8.80;;;16.60;99.90;;;;;;4966922;28;20038;-72
2022/05/10 06:33:13;;;;;;;17.15;10.40;;;16.80;99.90;;;;;;4966504;28;20093;-73
2022/05/10 06:35:40;;;;;;;11.63;9.30;;;16.90;99.90;;;;;;4959893;28;20093;-72
2022/05/10 06:38:27;;;;;;;18.17;10.02;;;17.00;99.90;;;;;;4967915;28;20058;-72
2022/05/10 06:40:53;;;;;;;14.23;9.07;;;17.10;99.90;;;;;;4956188;28;20063;-72
2022/05/10 06:43:19;;;;;;;16.67;9.45;;;17.30;99.90;;;;;;4965877;28;20035;-72
2022/05/10 06:45:46;;;;;;;12.38;8.07;;;17.40;99.90;;;;;;4962160;28;20101;-71
2022/05/10 06:48:12;;;;;;;12.98;8.20;;;17.50;99.90;;;;;;4961457;28;20042;-71
2022/05/10 06:50:38;;;;;;;15.77;9.02;;;17.50;99.90;;;;;;4968577;28;20046;-71
2022/05/10 06:53:04;;;;;;;15.13;8.70;;;17.60;99.90;;;;;;4964389;28;20459;-72
2022/05/10 06:55:32;;;;;;;9.82;8.00;;;17.60;99.90;;;;;;4962522;28;20387;-71
2022/05/10 06:58:01;;;;;;;11.48;8.45;;;17.60;99.90;;;;;;4957953;28;20039;-72
2022/05/10 07:00:27;;;;;;;13.05;8.27;;;17.70;99.90;;;;;;4966197;28;20038;-72
2022/05/10 07:02:53;;;;;;;12.00;8.23;;;17.80;99.90;;;;;;4962355;28;20066;-72
2022/05/10 07:05:20;;;;;;;15.05;8.35;;;17.90;99.90;;;;;;4975901;28;20073;-71
2022/05/10 07:07:46;;;;;;;11.85;8.18;;;18.00;99.90;;;;;;4963753;28;20038;-72
2022/05/10 07:10:13;;;;;;;11.63;7.88;;;18.20;99.90;;;;;;4966782;28;20519;-72
2022/05/10 07:12:41;;;;;;;10.95;7.65;;;18.30;99.90;;;;;;4959897;28;20043;-72
2022/05/10 07:15:10;;;;;;;12.27;7.57;;;18.50;99.90;;;;;;4963772;28;20049;-72
2022/05/10 07:17:38;;;;;;;15.23;7.53;;;18.70;99.00;;;;;;4957913;28;20050;-72
2022/05/10 07:20:05;;;;;;;13.20;7.90;;;19.00;99.90;;;;;;4966316;28;20509;-72
2022/05/10 07:22:31;;;;;;;13.32;8.77;;;19.20;99.20;;;;;;4966935;28;20046;-72
2022/05/10 07:24:57;;;;;;;15.15;9.00;;;19.40;98.60;;;;;;4968461;28;20047;-72
2022/05/10 07:27:22;;;;;;;18.33;8.93;;;19.50;98.20;;;;;;4967793;28;20050;-72
2022/05/10 07:29:48;;;;;;;16.30;8.80;;;19.70;95.90;;;;;;4981481;28;20081;-71
2022/05/10 07:32:14;;;;;;;19.42;9.00;;;19.80;96.10;;;;;;4966497;28;20094;-72
2022/05/10 07:34:42;;;;;;;13.95;9.35;;;19.90;94.30;;;;;;4968283;28;20042;-72
2022/05/10 07:37:08;;;;;;;13.85;9.32;;;19.90;94.10;;;;;;4969130;28;20440;-72
2022/05/10 07:39:35;;;;;;;15.95;9.27;;;20.00;93.10;;;;;;4961769;28;20441;-73
2022/05/10 07:42:03;;;;;;;26.27;9.93;;;20.10;94.70;;;;;;4969465;28;20445;-72
2022/05/10 07:44:30;;;;;;;16.02;9.80;;;20.20;94.30;;;;;;4966794;28;20493;-72
2022/05/10 07:46:56;;;;;;;14.02;9.25;;;20.30;93.40;;;;;;4981437;28;20051;-72
2022/05/10 07:49:21;;;;;;;17.65;9.38;;;20.40;92.80;;;;;;4984346;28;20051;-72
2022/05/10 07:51:47;;;;;;;19.58;9.13;;;20.60;91.30;;;;;;4963318;28;20047;-72
2022/05/10 07:54:13;;;;;;;16.02;9.48;;;20.70;92.10;;;;;;4959329;28;20039;-72
2022/05/10 07:56:40;;;;;;;14.77;9.27;;;20.70;91.70;;;;;;4963258;28;20074;-72
2022/05/10 07:59:06;;;;;;;14.95;9.68;;;20.90;91.40;;;;;;4958705;28;20039;-72
2022/05/10 08:01:32;;;;;;;15.57;9.38;;;20.90;90.50;;;;;;4961163;28;20097;-73
2022/05/10 08:03:58;;;;;;;14.55;8.73;;;21.10;90.70;;;;;;4959144;28;20078;-73
2022/05/10 08:06:25;;;;;;;13.75;8.43;;;21.20;87.00;;;;;;4981229;28;20038;-72
2022/05/10 08:08:51;;;;;;;16.08;8.48;;;21.40;84.60;;;;;;4969045;28;20412;-73
2022/05/10 08:11:17;;;;;;;13.73;8.77;;;21.40;82.50;;;;;;4955489;28;20046;-72
2022/05/10 08:13:43;;;;;;;16.13;8.90;;;21.60;83.70;;;;;;4980414;28;20078;-73
2022/05/10 08:16:09;;;;;;;17.75;8.23;;;21.70;81.90;;;;;;4961905;28;20039;-73
2022/05/10 08:18:37;;;;;;;15.95;8.98;;;21.70;82.60;;;;;;4963942;28;20508;-72
2022/05/10 08:21:03;;;;;;;12.52;7.65;;;21.70;81.50;;;;;;4970669;28;20493;-73
2022/05/10 08:23:32;;;;;;;16.20;8.30;;;21.70;80.10;;;;;;4972175;28;20644;-73
2022/05/10 08:25:59;;;;;;;12.63;7.57;;;21.80;80.40;;;;;;4977098;28;20069;-73
2022/05/10 08:28:28;;;;;;;13.75;6.97;;;21.70;79.70;;;;;;4965764;28;20490;-73
2022/05/10 08:30:55;;;;;;;10.20;7.00;;;21.70;78.30;;;;;;4965095;28;20502;-73
2022/05/10 08:33:24;;;;;;;12.88;6.93;;;21.70;78.50;;;;;;4957357;28;20516;-73
2022/05/10 08:35:51;;;;;;;12.10;6.63;;;21.70;77.00;;;;;;4952089;28;20509;-73
2022/05/10 08:38:17;;;;;;;13.70;6.95;;;21.60;79.00;;;;;;4967890;28;20442;-73
2022/05/10 08:40:47;;;;;;;15.88;7.40;;;21.60;79.40;;;;;;4975086;28;20184;-73
2022/05/10 08:43:21;;;;;;;11.68;7.22;;;21.60;80.50;;;;;;4968332;28;20687;-73
2022/05/10 08:45:47;;;;;;;15.32;7.72;;;21.60;81.80;;;;;;4972983;28;20050;-73
2022/05/10 08:48:14;;;;;;;15.52;7.10;;;21.60;80.00;;;;;;4971293;28;20034;-73
2022/05/10 08:50:47;;;;;;;11.25;7.13;;;21.60;80.50;;;;;;4969460;28;20516;-73
2022/05/10 08:53:13;;;;;;;13.40;7.70;;;21.60;79.70;;;;;;4964911;28;20553;-73
2022/05/10 08:55:45;;;;;;;12.82;6.80;;;21.60;79.10;;;;;;4953741;28;20078;-72
2022/05/10 08:58:30;;;;;;;12.05;6.60;;;21.70;80.20;;;;;;4992486;28;20130;-73
2022/05/10 09:01:02;;;;;;;12.23;6.88;;;21.80;79.80;;;;;;4989136;28;20047;-73
2022/05/10 09:03:38;;;;;;;12.68;6.95;;;21.80;80.30;;;;;;4982477;28;20432;-72
2022/05/10 09:06:24;;;;;;;12.38;6.60;;;22.00;78.50;;;;;;4970671;28;20043;-73
2022/05/10 09:09:22;;;;;;;14.25;7.25;;;22.00;79.90;;;;;;4974539;28;20556;-72
2022/05/10 09:12:13;;;;;;;14.85;7.75;;;22.00;78.60;;;;;;4954400;28;20071;-73
2022/05/10 09:14:49;;;;;;;14.18;7.57;;;22.10;78.20;;;;;;4969151;28;20056;-73
2022/05/10 09:17:19;;;;;;;13.98;7.43;;;22.00;78.60;;;;;;4966147;28;20041;-73
2022/05/10 09:19:45;;;;;;;13.30;7.15;;;22.00;77.80;;;;;;4958548;28;20075;-73
2022/05/10 09:22:48;;;;;;;10.68;7.80;;;22.10;79.60;;;;;;4965501;28;20066;-73
2022/05/10 09:25:29;;;;;;;14.25;7.70;;;22.00;80.00;;;;;;4970006;28;20065;-73
2022/05/10 09:27:55;;;;;;;21.38;7.57;;;22.00;80.00;;;;;;4968127;28;20047;-72
2022/05/10 09:30:33;;;;;;;12.77;8.00;;;22.00;81.70;;;;;;4969641;28;20049;-73
2022/05/10 09:36:29;;;;;;;19.60;8.10;;;22.00;82.60;;;;;;4964893;28;20445;-73
2022/05/10 09:39:20;;;;;;;14.35;7.97;;;22.20;82.80;;;;;;4963424;28;20046;-73
2022/05/10 09:41:51;;;;;;;12.82;7.60;;;22.30;81.10;;;;;;4957569;28;20042;-73
2022/05/10 09:44:24;;;;;;;11.23;7.35;;;22.40;82.30;;;;;;4979824;28;20031;-73
2022/05/10 09:46:51;;;;;;;11.13;7.18;;;22.50;82.90;;;;;;4963762;28;20515;-73
2022/05/10 09:49:37;;;;;;;14.50;7.53;;;22.70;83.60;;;;;;4961638;28;20528;-73
2022/05/10 09:52:04;;;;;;;16.75;7.55;;;23.00;81.20;;;;;;4965192;28;20438;-73
2022/05/10 09:54:39;;;;;;;12.05;7.90;;;23.30;77.70;;;;;;4946367;28;20053;-73
2022/05/10 09:57:10;;;;;;;14.70;7.75;;;23.40;75.10;;;;;;4968040;28;20047;-73
2022/05/10 09:59:44;;;;;;;14.07;7.95;;;23.40;73.80;;;;;;4952994;28;20092;-73
2022/05/10 10:02:10;;;;;;;12.00;6.88;;;23.40;74.20;;;;;;4972766;28;20077;-73
2022/05/10 10:04:38;;;;;;;10.73;7.50;;;23.40;71.90;;;;;;4967038;28;20062;-73
2022/05/10 10:07:06;;;;;;;12.00;7.60;;;23.40;72.80;;;;;;4951077;28;20374;-73
2022/05/10 10:09:37;;;;;;;9.35;7.50;;;23.40;72.50;;;;;;4983403;28;20766;-73
2022/05/10 10:12:03;;;;;;;12.15;7.47;;;23.40;73.00;;;;;;4967419;28;20054;-73
2022/05/10 10:14:48;;;;;;;10.57;7.38;;;23.40;76.30;;;;;;4969137;28;20046;-73
2022/05/10 10:17:22;;;;;;;16.13;7.70;;;23.50;73.20;;;;;;4965645;28;20497;-73
2022/05/10 10:19:57;;;;;;;9.40;7.80;;;23.60;75.70;;;;;;4959571;28;20163;-73
2022/05/10 10:22:33;;;;;;;15.50;7.60;;;23.70;75.80;;;;;;4966697;28;20046;-73
2022/05/10 10:25:15;;;;;;;12.52;7.78;;;23.60;72.00;;;;;;4952264;28;20065;-73
2022/05/10 10:27:54;;;;;;;12.98;7.88;;;23.70;72.90;;;;;;4966420;28;20050;-73
2022/05/10 10:30:27;;;;;;;12.88;8.05;;;23.80;74.40;;;;;;4964126;28;20047;-73
2022/05/10 10:33:00;;;;;;;12.43;7.18;;;23.90;74.20;;;;;;4958052;28;20053;-74
2022/05/10 10:35:47;;;;;;;15.18;7.80;;;24.00;75.60;;;;;;4966648;28;20050;-74
2022/05/10 10:38:20;;;;;;;10.32;6.65;;;24.30;76.00;;;;;;4962800;28;20137;-74
2022/05/10 10:40:58;;;;;;;11.55;6.68;;;24.70;72.60;;;;;;4959028;28;20040;-74
2022/05/10 10:43:54;;;;;;;12.07;6.75;;;24.90;68.20;;;;;;4979782;28;20046;-74
2022/05/10 10:46:29;;;;;;;13.23;7.00;;;25.00;68.10;;;;;;4967042;28;20074;-74
2022/05/10 10:48:59;;;;;;;10.40;6.45;;;24.90;66.30;;;;;;4969932;28;20066;-73
2022/05/10 10:51:31;;;;;;;13.40;6.35;;;24.90;64.20;;;;;;4970973;28;20043;-74
2022/05/10 10:53:59;;;;;;;18.98;6.28;;;24.90;66.50;;;;;;4971197;28;20060;-72
2022/05/10 10:56:46;;;;;;;7.85;5.95;;;25.10;65.30;;;;;;4968607;28;20504;-73
2022/05/10 10:59:39;;;;;;;33.97;6.63;;;25.30;65.10;;;;;;4961985;28;20074;-73
2022/05/10 11:02:17;;;;;;;18.10;6.13;;;25.50;65.90;;;;;;4963377;28;20126;-73
2022/05/10 11:05:25;;;;;;;18.00;6.03;;;25.70;62.60;;;;;;4975487;28;20043;-73
2022/05/10 11:08:38;;;;;;;9.63;5.53;;;25.70;61.70;;;;;;4898435;29;20072;-73
2022/05/10 11:11:19;;;;;;;9.88;5.20;;;25.60;60.80;;;;;;4946348;28;20055;-73
2022/05/10 11:14:16;;;;;;;11.05;5.10;;;25.30;59.70;;;;;;4944730;28;20050;-72
2022/05/10 11:17:13;;;;;;;13.10;4.93;;;25.10;60.70;;;;;;4953769;28;20050;-73
2022/05/10 11:20:00;;;;;;;11.30;4.75;;;24.90;61.40;;;;;;4958525;28;20469;-73
2022/05/10 11:22:56;;;;;;;10.70;5.20;;;24.70;61.50;;;;;;4972869;28;20485;-73
2022/05/10 11:25:35;;;;;;;11.68;4.38;;;24.60;61.80;;;;;;4963275;28;20038;-73
2022/05/10 11:28:34;;;;;;;11.18;4.65;;;24.30;63.10;;;;;;4962758;28;20489;-73
2022/05/10 11:31:08;;;;;;;9.07;4.72;;;23.90;62.80;;;;;;4965871;28;20581;-73
2022/05/10 11:33:45;;;;;;;15.57;5.60;;;23.70;64.90;;;;;;4979565;28;20516;-72
2022/05/10 11:36:40;;;;;;;21.75;5.25;;;23.70;63.30;;;;;;4956154;28;20541;-73
2022/05/10 11:39:16;;;;;;;10.48;6.10;;;23.60;62.50;;;;;;4962821;28;20085;-73
2022/05/10 11:42:08;;;;;;;19.35;6.43;;;23.60;62.80;;;;;;4979539;28;20501;-72
2022/05/10 11:44:43;;;;;;;16.90;6.40;;;23.60;61.90;;;;;;4963067;28;20402;-73
2022/05/10 11:47:43;;;;;;;12.52;5.72;;;23.80;61.60;;;;;;4973638;28;20392;-72
2022/05/10 11:51:38;;;;;;;19.23;6.13;;;23.90;61.10;;;;;;4969251;28;20043;-72
2022/05/10 11:53:41;;;;;;;11.68;5.75;;;24.00;61.30;;;;;;4973487;28;20043;-73
2022/05/10 11:56:07;;;;;;;9.35;5.40;;;24.10;61.60;;;;;;4975600;28;20456;-73
2022/05/10 11:58:35;;;;;;;25.23;6.57;;;24.20;60.00;;;;;;4974498;28;20405;-73
2022/05/10 12:01:04;;;;;;;25.20;5.43;;;24.30;58.20;;;;;;4970870;28;20057;-74
2022/05/10 12:03:36;;;;;;;22.67;5.45;;;24.40;58.00;;;;;;4987954;28;20062;-73
2022/05/10 12:06:31;;;;;;;18.45;5.00;;;24.30;58.90;;;;;;4971398;28;20441;-73
2022/05/10 12:09:00;;;;;;;22.80;5.40;;;24.30;57.70;;;;;;4967746;28;20105;-73
2022/05/10 12:11:28;;;;;;;14.68;5.32;;;24.40;58.50;;;;;;4966965;28;20397;-73
2022/05/10 12:22:58;;;;;;;15.77;5.70;;;24.40;58.00;;;;;;4981196;28;20059;-73
2022/05/10 12:25:52;;;;;;;14.15;5.22;;;24.50;58.30;;;;;;4964740;28;20397;-73
2022/05/10 12:28:37;;;;;;;13.63;5.13;;;24.40;59.40;;;;;;4965399;28;20390;-73
2022/05/10 12:31:25;;;;;;;14.88;5.78;;;24.60;60.50;;;;;;4963408;28;20071;-73
2022/05/10 12:34:09;;;;;;;13.15;5.15;;;24.70;57.50;;;;;;4972000;28;20082;-72
2022/05/10 12:36:37;;;;;;;11.68;4.70;;;24.80;57.20;;;;;;4969060;28;20045;-73
2022/05/10 12:39:29;;;;;;;28.10;5.60;;;24.90;56.90;;;;;;4970351;28;20371;-73
2022/05/10 12:42:16;;;;;;;12.80;4.63;;;24.90;57.50;;;;;;4969384;28;20495;-73
2022/05/10 12:45:21;;;;;;;14.50;4.80;;;24.60;58.60;;;;;;4969944;28;20060;-73
2022/05/10 12:47:53;;;;;;;10.70;4.30;;;24.80;59.00;;;;;;4962704;28;20043;-73
2022/05/10 12:50:29;;;;;;;;;;;25.00;59.90;;;;;;4960006;28;20058;-72
2022/05/10 12:52:55;;;;;;;10.90;4.43;;;25.10;58.90;;;;;;4969417;28;19979;-73
2022/05/10 12:55:25;;;;;;;13.02;3.90;;;25.10;58.80;;;;;;4987047;28;20525;-73
2022/05/10 12:57:57;;;;;;;12.35;4.13;;;25.30;58.10;;;;;;4965058;28;20062;-73
2022/05/10 13:00:26;;;;;;;5.75;3.40;;;25.40;58.60;;;;;;4962555;28;20034;-73
2022/05/10 13:03:00;;;;;;;14.68;4.22;;;25.50;57.50;;;;;;4967152;28;20055;-73
2022/05/10 13:05:47;;;;;;;15.45;4.20;;;25.30;56.30;;;;;;4980268;28;20045;-73
2022/05/10 13:08:38;;;;;;;18.38;4.20;;;25.10;57.80;;;;;;4968298;28;20041;-73
2022/05/10 13:11:05;;;;;;;8.73;4.03;;;24.90;58.30;;;;;;4948966;28;20046;-73
2022/05/10 13:13:33;;;;;;;29.33;4.45;;;24.70;58.90;;;;;;4968157;28;22183;-73
2022/05/10 13:16:01;;;;;;;15.27;3.47;;;24.60;60.40;;;;;;4961249;28;20057;-73
2022/05/10 13:18:28;;;;;;;10.65;3.83;;;24.40;61.60;;;;;;4956477;28;20034;-75
2022/05/10 13:20:57;;;;;;;13.65;3.67;;;24.20;61.90;;;;;;4968340;28;20035;-75
2022/05/10 13:23:28;;;;;;;12.15;4.13;;;24.10;62.30;;;;;;4965183;28;20054;-74
2022/05/10 13:26:02;;;;;;;14.30;4.72;;;24.00;62.30;;;;;;4962883;28;20043;-73